ADDS METAR Data INFO
IDs: Format: Raw Decoded Include TAF

Data at: 2037 UTC 20 Jul 2018

METAR for:KVCT (Victoria Rgnl, TX, US)
Text:KVCT 201951Z COR 17011KT 10SM FEW060 35/22 A2995 RMK AO2 SLP139 T03500217
Temperature: 35.0°C ( 95°F)
Dewpoint: 21.7°C ( 71°F) [RH = 46%]
Pressure (altimeter):29.95 inches Hg (1014.3 mb) [Sea level pressure: 1013.9 mb]
Winds:from the S (170 degrees) at 13 MPH (11 knots; 5.7 m/s)
Visibility:10 or more sm (16+ km)
Ceiling:at least 12,000 feet AGL
Clouds: few clouds at 6000 feet AGL